Welcome to Des Moines Iowa Weather. I am an independent private personal weather station on the Northwest Side of Des Moines, Iowa. Just East of Windsor Heights and just West of Glendale . This site is also mobile friendly.

There are no active watches, warnings or advisories


Visit our other weather sites:

Historical Data

Weather Station Setup



Weather Underground History page Text

Daily Summary for July 10, 2017 Units:  English    Metric   Both
« Previous Day
Next Day »
Daily Weekly Monthly Yearly Custom
  High: Low: Average:
Temperature: 91.1 °F 74.3 °F 83.1 °F
Dew Point: 77.0 °F 70.0 °F 72.8 °F
Humidity: 85 % 58 % 72 %
Wind Speed: 6.0 mph 0.0 mph 0.9 mph
Wind Gust: 11.0 mph - -
Wind:- - SSW
Pressure: 29.80 in 29.65 in -
Precipitation: 0.00 in    
Historical Graphs
 
 
Tabular Data for July 10, 2017
Time Temperature Dew Point Pressure Wind Wind Speed Wind Gust Humidity Rainfall Rate (Hourly)
00:04 80.2 °F 72.0 °F 29.71 in SSE 3.0 mph 6.0 mph 76 % 0.00 in
00:19 80.3 °F 72.0 °F 29.71 in SSW 1.0 mph 5.0 mph 75 % 0.00 in
00:34 80.3 °F 72.0 °F 29.70 in Calm   4.0 mph 75 % 0.00 in
00:49 80.3 °F 72.0 °F 29.69 in Calm   5.0 mph 75 % 0.00 in
01:04 80.4 °F 71.0 °F 29.68 in Calm   5.0 mph 74 % 0.00 in
01:19 80.4 °F 71.0 °F 29.68 in Calm   6.0 mph 74 % 0.00 in
01:34 80.4 °F 71.0 °F 29.69 in Calm   3.0 mph 74 % 0.00 in
01:49 80.3 °F 71.0 °F 29.68 in Calm   5.0 mph 74 % 0.00 in
02:05 80.3 °F 71.0 °F 29.68 in Calm   7.0 mph 74 % 0.00 in
02:20 80.3 °F 71.0 °F 29.66 in SSW 2.0 mph 9.0 mph 74 % 0.00 in
02:35 80.5 °F 72.0 °F 29.65 in Calm   7.0 mph 74 % 0.00 in
02:50 80.4 °F 71.0 °F 29.66 in ESE 4.0 mph 5.0 mph 74 % 0.00 in
03:05 80.3 °F 72.0 °F 29.66 in WNW 1.0 mph 8.0 mph 75 % 0.00 in
03:20 80.3 °F 72.0 °F 29.66 in SSW 1.0 mph 7.0 mph 75 % 0.00 in
03:35 80.2 °F 72.0 °F 29.66 in ENE 2.0 mph 8.0 mph 75 % 0.00 in
03:50 80.0 °F 71.0 °F 29.66 in Calm   6.0 mph 75 % 0.00 in
04:05 79.9 °F 72.0 °F 29.66 in NNE 2.0 mph 5.0 mph 76 % 0.00 in
04:20 79.8 °F 72.0 °F 29.66 in North 3.0 mph 6.0 mph 76 % 0.00 in
04:35 79.7 °F 72.0 °F 29.67 in Calm   3.0 mph 76 % 0.00 in
04:50 79.6 °F 71.0 °F 29.68 in Calm   3.0 mph 76 % 0.00 in
05:05 79.4 °F 71.0 °F 29.68 in Calm   1.0 mph 76 % 0.00 in
05:20 79.1 °F 71.0 °F 29.68 in Calm     77 % 0.00 in
05:35 78.9 °F 72.0 °F 29.68 in Calm   4.0 mph 78 % 0.00 in
05:50 78.7 °F 71.0 °F 29.68 in Calm   2.0 mph 78 % 0.00 in
06:05 78.6 °F 72.0 °F 29.68 in ESE 2.0 mph 3.0 mph 79 % 0.00 in
06:20 78.5 °F 72.0 °F 29.67 in Calm   2.0 mph 79 % 0.00 in
06:35 78.4 °F 72.0 °F 29.66 in Calm   3.0 mph 80 % 0.00 in
06:50 78.4 °F 72.0 °F 29.66 in Calm   6.0 mph 80 % 0.00 in
07:05 78.5 °F 72.0 °F 29.66 in East 2.0 mph 10.0 mph 81 % 0.00 in
07:20 78.7 °F 72.0 °F 29.66 in Calm   3.0 mph 81 % 0.00 in
07:35 79.1 °F 73.0 °F 29.66 in North 3.0 mph 4.0 mph 81 % 0.00 in
07:50 79.4 °F 73.0 °F 29.66 in NE 1.0 mph 5.0 mph 81 % 0.00 in
08:05 79.8 °F 73.0 °F 29.66 in Calm   8.0 mph 80 % 0.00 in
08:20 80.3 °F 74.0 °F 29.66 in Calm   6.0 mph 80 % 0.00 in
08:35 80.9 °F 73.0 °F 29.66 in Calm   9.0 mph 78 % 0.00 in
08:50 81.4 °F 73.0 °F 29.68 in NE 2.0 mph 6.0 mph 76 % 0.00 in
09:05 81.9 °F 74.0 °F 29.67 in Calm   6.0 mph 76 % 0.00 in
09:20 82.6 °F 74.0 °F 29.67 in Calm   6.0 mph 74 % 0.00 in
09:36 83.2 °F 73.0 °F 29.67 in Calm   9.0 mph 72 % 0.00 in
09:50 84.1 °F 73.0 °F 29.68 in NW 3.0 mph 8.0 mph 70 % 0.00 in
10:05 85.0 °F 73.0 °F 29.68 in NW 1.0 mph 4.0 mph 68 % 0.00 in
10:21 85.7 °F 74.0 °F 29.68 in NNW 1.0 mph 5.0 mph 67 % 0.00 in
10:36 86.3 °F 74.0 °F 29.68 in Calm   11.0 mph 66 % 0.00 in
10:51 87.2 °F 74.0 °F 29.69 in Calm   5.0 mph 64 % 0.00 in
11:06 88.4 °F 73.0 °F 29.69 in Calm   6.0 mph 61 % 0.00 in
11:21 89.3 °F 73.0 °F 29.70 in Calm   6.0 mph 59 % 0.00 in
11:36 90.0 °F 74.0 °F 29.70 in South 6.0 mph 7.0 mph 60 % 0.00 in
11:51 90.7 °F 74.0 °F 29.70 in NNW 3.0 mph 3.0 mph 59 % 0.00 in
12:06 90.7 °F 74.0 °F 29.70 in NE 1.0 mph 9.0 mph 59 % 0.00 in
12:21 91.1 °F 74.0 °F 29.70 in NW 1.0 mph 9.0 mph 58 % 0.00 in
12:36 90.0 °F 74.0 °F 29.71 in NNE 1.0 mph 9.0 mph 59 % 0.00 in
12:51 89.7 °F 74.0 °F 29.70 in Calm   6.0 mph 60 % 0.00 in
13:06 89.2 °F 75.0 °F 29.71 in Calm   8.0 mph 64 % 0.00 in
13:21 89.5 °F 75.0 °F 29.72 in Calm   5.0 mph 62 % 0.00 in
13:36 89.6 °F 76.0 °F 29.72 in Calm   5.0 mph 64 % 0.00 in
13:51 89.8 °F 76.0 °F 29.72 in SSW 1.0 mph 5.0 mph 63 % 0.00 in
14:06 89.8 °F 76.0 °F 29.72 in Calm   5.0 mph 64 % 0.00 in
14:21 90.5 °F 77.0 °F 29.72 in WSW 2.0 mph 6.0 mph 64 % 0.00 in
14:36 90.6 °F 75.0 °F 29.71 in NNE 3.0 mph 6.0 mph 61 % 0.00 in
14:52 89.8 °F 77.0 °F 29.72 in Calm   11.0 mph 65 % 0.00 in
15:06 90.1 °F 76.0 °F 29.72 in NW 2.0 mph 11.0 mph 63 % 0.00 in
15:21 89.8 °F 75.0 °F 29.73 in Calm   8.0 mph 62 % 0.00 in
15:36 88.9 °F 75.0 °F 29.73 in NNW 3.0 mph 8.0 mph 63 % 0.00 in
15:51 88.4 °F 75.0 °F 29.73 in North 3.0 mph 4.0 mph 64 % 0.00 in
16:07 87.7 °F 75.0 °F 29.74 in WSW 3.0 mph 9.0 mph 65 % 0.00 in
16:21 87.4 °F 74.0 °F 29.75 in NNW 2.0 mph 8.0 mph 65 % 0.00 in
16:36 87.3 °F 74.0 °F 29.75 in NNW 2.0 mph 8.0 mph 65 % 0.00 in
16:51 87.2 °F 75.0 °F 29.75 in West 1.0 mph 8.0 mph 66 % 0.00 in
17:06 87.4 °F 74.0 °F 29.75 in Calm   5.0 mph 65 % 0.00 in
17:21 88.4 °F 75.0 °F 29.74 in Calm   3.0 mph 65 % 0.00 in
17:36 88.5 °F 73.0 °F 29.74 in WSW 3.0 mph 5.0 mph 61 % 0.00 in
17:51 88.0 °F 73.0 °F 29.74 in Calm   4.0 mph 62 % 0.00 in
18:06 87.3 °F 73.0 °F 29.73 in Calm   1.0 mph 63 % 0.00 in
18:21 86.7 °F 73.0 °F 29.73 in Calm   2.0 mph 64 % 0.00 in
18:37 86.2 °F 73.0 °F 29.73 in Calm   4.0 mph 64 % 0.00 in
18:52 85.7 °F 73.0 °F 29.73 in Calm   4.0 mph 65 % 0.00 in
19:07 85.4 °F 73.0 °F 29.74 in Calm   4.0 mph 67 % 0.00 in
19:22 84.9 °F 73.0 °F 29.75 in Calm   4.0 mph 68 % 0.00 in
19:37 84.2 °F 74.0 °F 29.75 in NNE 1.0 mph 4.0 mph 71 % 0.00 in
19:52 83.3 °F 74.0 °F 29.75 in NW 2.0 mph 6.0 mph 73 % 0.00 in
20:07 82.1 °F 73.0 °F 29.76 in NW 2.0 mph 6.0 mph 74 % 0.00 in
20:22 81.1 °F 72.0 °F 29.76 in WNW 3.0 mph 8.0 mph 74 % 0.00 in
20:37 80.4 °F 72.0 °F 29.75 in Calm   3.0 mph 75 % 0.00 in
20:52 79.8 °F 72.0 °F 29.76 in NNE 2.0 mph 4.0 mph 76 % 0.00 in
21:07 79.3 °F 72.0 °F 29.75 in NNW 2.0 mph 4.0 mph 77 % 0.00 in
21:22 78.7 °F 71.0 °F 29.76 in Calm   4.0 mph 78 % 0.00 in
21:37 78.4 °F 71.0 °F 29.76 in Calm   1.0 mph 79 % 0.00 in
21:52 77.9 °F 71.0 °F 29.77 in Calm   3.0 mph 79 % 0.00 in
22:07 77.5 °F 71.0 °F 29.78 in Calm   2.0 mph 81 % 0.00 in
22:22 76.9 °F 71.0 °F 29.78 in Calm   5.0 mph 82 % 0.00 in
22:37 76.3 °F 70.0 °F 29.78 in NE 1.0 mph 4.0 mph 82 % 0.00 in
22:52 75.8 °F 70.0 °F 29.78 in Calm   4.0 mph 83 % 0.00 in
23:07 75.3 °F 70.0 °F 29.79 in NE 2.0 mph 4.0 mph 83 % 0.00 in
23:22 74.9 °F 70.0 °F 29.79 in Calm   8.0 mph 84 % 0.00 in
23:37 74.6 °F 70.0 °F 29.80 in Calm   2.0 mph 84 % 0.00 in
23:52 74.3 °F 70.0 °F 29.80 in Calm   1.0 mph 85 % 0.00 in
Des Moines Weather and Climate
Compliments of Weather Underground - 3 mb

Script developed by  Jim McMurry - jmcmurry@mwt.net Adapted for the template by  Wim van der Kuil - Leuven-Template.eu

You find our weather info also at:

Weather Underground

Equipment we use:

Weather-station
Davis VP2 Plus

Weather-program
Davis Weatherlink.Com

Weather-server
iMac (Retina 4K, 21.5-inch, Late 2015)

Provider
Hostmonster.com

Davis VP2 Plus

Davis Weatherlink.Com

iMac (Retina 4K, 21.5-inch, Late 2015)

Hostmonster.com